Aviation Digital Data Service (ADDS)

Output produced by METARs form (2201 UTC 24 March 2019)
found at http://www.aviationweather.gov/metar/data/
 
TLPC 241700Z 2418/2518 10010KT 9999 SCT025 
     TEMPO 2418/2518 SHRA
       
TLPL 241700Z 2418/2518 09020KT 9999 SCT025 
     TEMPO 2418/2518 SHRA